Time;durP1;ratioP1;P1;durP2;ratioP2;P2;SDS_P1;SDS_P2;PMS_P1;PMS_P2;Temp;Humidity;BMP_temperature;BMP_pressure;BME280_temperature;BME280_humidity;BME280_pressure;Samples;Min_cycle;Max_cycle;Signal;HPM_P1;HPM_P2
2021/10/16 00:04:23;;;;;;;6.30;4.40;;;;;;;9.30;76.64;99885.30;227514;1197;140199;-68
2021/10/16 00:09:36;;;;;;;8.10;4.90;;;;;;;9.27;76.60;99888.82;227532;1198;140721;-67
2021/10/16 00:14:49;;;;;;;5.90;4.50;;;;;;;9.29;76.68;99891.75;227757;1198;140265;-68
2021/10/16 00:20:19;;;;;;;6.50;4.10;;;;;;;9.28;76.79;99891.46;226802;1199;139656;-68
2021/10/16 00:25:41;;;;;;;6.40;4.60;;;;;;;9.21;76.80;99902.05;227929;1198;140516;-69
2021/10/16 00:30:47;;;;;;;12.00;6.30;;;;;;;9.19;76.77;99898.08;227623;1198;140923;-68
2021/10/16 00:35:54;;;;;;;9.30;5.60;;;;;;;9.21;76.90;99895.06;227945;1198;140175;-68
2021/10/16 00:40:58;;;;;;;6.10;4.60;;;;;;;9.23;77.14;99899.02;228677;1198;140139;-71
2021/10/16 00:46:02;;;;;;;6.30;4.10;;;;;;;9.20;77.04;99902.73;228821;1198;155344;-69
2021/10/16 00:51:08;;;;;;;11.30;5.30;;;;;;;9.22;76.88;99904.95;227253;1198;151029;-68
2021/10/16 00:56:13;;;;;;;5.20;4.50;;;;;;;9.23;76.98;99908.66;228059;1198;221124;-68
2021/10/16 01:01:16;;;;;;;5.20;4.40;;;;;;;9.24;77.05;99911.19;228556;1198;141423;-68
2021/10/16 01:06:21;;;;;;;13.30;5.50;;;;;;;9.30;76.84;99912.86;227747;1198;140866;-67
2021/10/16 01:11:46;;;;;;;11.50;5.00;;;;;;;9.29;76.89;99910.65;229192;1198;140370;-68
2021/10/16 01:17:10;;;;;;;9.20;4.70;;;;;;;9.25;76.89;99907.66;229290;1198;140849;-69
2021/10/16 01:22:15;;;;;;;9.20;4.60;;;;;;;9.23;76.78;99905.36;228964;1198;140523;-70
2021/10/16 01:27:20;;;;;;;11.80;5.40;;;;;;;9.22;76.63;99903.24;226755;1200;139827;-68
2021/10/16 01:32:24;;;;;;;11.10;4.50;;;;;;;9.19;76.64;99909.12;228094;1198;140889;-68
2021/10/16 01:37:41;;;;;;;6.20;4.40;;;;;;;9.15;76.69;99913.48;228016;1198;139379;-68
2021/10/16 01:42:51;;;;;;;15.50;6.00;;;;;;;9.20;76.81;99922.61;227361;1198;139883;-68
2021/10/16 01:47:59;;;;;;;6.00;3.50;;;;;;;9.22;76.92;99924.48;228501;1198;139362;-68
2021/10/16 01:53:12;;;;;;;10.70;6.10;;;;;;;9.19;76.59;99919.44;228134;1198;140937;-69
2021/10/16 01:58:21;;;;;;;12.50;5.50;;;;;;;9.21;76.57;99925.63;227276;1198;140415;-68
2021/10/16 02:03:26;;;;;;;8.70;5.30;;;;;;;9.18;76.73;99929.73;227354;1197;138940;-68
2021/10/16 02:08:34;;;;;;;9.60;5.50;;;;;;;9.15;76.84;99935.34;226764;1194;139194;-67
2021/10/16 02:13:38;;;;;;;11.70;5.70;;;;;;;9.16;76.90;99942.23;227444;1198;140408;-67
2021/10/16 02:18:45;;;;;;;13.50;8.00;;;;;;;9.21;76.83;99950.02;227558;1198;140345;-68
2021/10/16 02:23:49;;;;;;;9.60;3.80;;;;;;;9.22;76.80;99955.00;227390;1199;140340;-68
2021/10/16 02:28:53;;;;;;;8.30;4.00;;;;;;;9.18;76.87;99954.89;227199;1198;139367;-67
2021/10/16 02:33:58;;;;;;;8.90;4.60;;;;;;;9.17;76.78;99955.88;227768;1199;139688;-69
2021/10/16 02:39:02;;;;;;;10.60;5.30;;;;;;;9.17;76.51;99956.05;227901;1198;139663;-67
2021/10/16 02:44:11;;;;;;;6.20;5.40;;;;;;;9.18;76.66;99958.41;227670;1199;140226;-68
2021/10/16 02:49:17;;;;;;;7.50;5.40;;;;;;;9.15;76.77;99962.42;228376;1198;139707;-69
2021/10/16 02:54:21;;;;;;;11.20;4.90;;;;;;;9.15;76.53;99963.65;228717;1198;141857;-68
2021/10/16 02:59:35;;;;;;;8.90;4.70;;;;;;;9.17;76.53;99968.27;229377;1198;139677;-68
2021/10/16 03:04:53;;;;;;;6.00;3.80;;;;;;;9.13;76.40;99971.48;228377;1198;139173;-68
2021/10/16 03:09:58;;;;;;;12.70;5.10;;;;;;;9.09;76.46;99972.00;229512;1198;138923;-70
2021/10/16 03:15:04;;;;;;;8.00;3.60;;;;;;;9.12;76.32;99973.29;227452;1198;141948;-67
2021/10/16 03:20:10;;;;;;;10.10;4.10;;;;;;;9.10;76.34;99974.45;229133;1198;139311;-69
2021/10/16 03:25:13;;;;;;;11.00;3.80;;;;;;;9.07;76.49;99977.18;227951;1198;139085;-68
2021/10/16 03:30:17;;;;;;;11.50;3.50;;;;;;;9.05;76.39;99983.25;227566;1198;139670;-67
2021/10/16 03:35:20;;;;;;;7.90;4.40;;;;;;;9.02;76.32;99978.40;227665;1197;139714;-68
2021/10/16 03:40:25;;;;;;;12.10;5.10;;;;;;;8.99;76.55;99989.23;227721;1198;140002;-67
2021/10/16 03:45:30;;;;;;;13.70;4.40;;;;;;;8.93;76.36;99991.80;228125;1197;139499;-67
2021/10/16 03:50:35;;;;;;;6.00;3.80;;;;;;;8.87;76.31;99991.90;226982;1198;140504;-68
2021/10/16 03:55:39;;;;;;;5.90;4.50;;;;;;;8.89;76.72;99998.09;226946;1198;140991;-67
2021/10/16 04:00:43;;;;;;;6.60;4.30;;;;;;;8.88;76.75;100005.98;226404;1198;140729;-69
2021/10/16 04:05:47;;;;;;;10.50;4.80;;;;;;;8.85;76.90;100009.58;226478;1198;140374;-68
2021/10/16 04:10:51;;;;;;;11.10;6.20;;;;;;;8.87;76.88;100014.23;226724;1198;140038;-68
2021/10/16 04:15:56;;;;;;;10.10;6.70;;;;;;;8.85;76.86;100015.88;227433;1198;140790;-69
2021/10/16 04:21:04;;;;;;;8.40;4.40;;;;;;;8.77;77.17;100013.39;227714;1198;139791;-68
2021/10/16 04:26:10;;;;;;;8.90;3.90;;;;;;;8.76;77.12;100017.72;228140;1198;139467;-68
2021/10/16 04:31:15;;;;;;;9.50;4.50;;;;;;;8.76;76.94;100023.78;227826;1198;139809;-66
2021/10/16 04:36:20;;;;;;;4.80;3.70;;;;;;;8.76;77.23;100025.21;226466;1198;140182;-67
2021/10/16 04:41:26;;;;;;;10.80;4.80;;;;;;;8.75;77.24;100024.77;227500;1198;138885;-66
2021/10/16 04:46:30;;;;;;;7.40;4.60;;;;;;;8.77;77.32;100022.01;228664;1198;139084;-66
2021/10/16 04:51:35;;;;;;;10.80;5.60;;;;;;;8.77;76.95;100026.10;229336;1198;139878;-66
2021/10/16 04:56:42;;;;;;;8.90;5.20;;;;;;;8.76;77.03;100032.41;229361;1198;139680;-66
2021/10/16 05:01:47;;;;;;;9.20;3.90;;;;;;;8.75;77.16;100036.55;229354;1197;139206;-66
2021/10/16 05:07:05;;;;;;;10.80;3.80;;;;;;;8.74;76.97;100043.91;229405;1198;140505;-67
2021/10/16 05:12:11;;;;;;;9.90;4.50;;;;;;;8.75;76.77;100039.48;229205;1198;140530;-71
2021/10/16 05:17:25;;;;;;;10.60;4.60;;;;;;;8.72;76.78;100042.31;228963;1198;138989;-67
2021/10/16 05:22:41;;;;;;;12.90;6.90;;;;;;;8.78;76.98;100049.94;228160;1198;140322;-66
2021/10/16 05:27:52;;;;;;;13.90;6.70;;;;;;;8.75;76.85;100049.95;228360;1198;140567;-67
2021/10/16 05:32:58;;;;;;;20.60;9.50;;;;;;;8.65;76.92;100053.27;226574;1183;140460;-66
2021/10/16 05:38:11;;;;;;;10.60;6.40;;;;;;;8.64;77.12;100061.05;227508;1198;140087;-68
2021/10/16 05:43:21;;;;;;;13.50;6.60;;;;;;;8.64;77.13;100064.29;226828;1198;139582;-68
2021/10/16 05:48:28;;;;;;;13.00;6.70;;;;;;;8.62;77.35;100070.52;227726;1196;140620;-66
2021/10/16 05:53:33;;;;;;;12.50;6.70;;;;;;;8.63;77.16;100075.94;226566;1198;139857;-67
2021/10/16 05:58:38;;;;;;;12.90;6.50;;;;;;;8.64;76.84;100084.68;227838;1198;139533;-67
2021/10/16 06:03:44;;;;;;;18.00;7.80;;;;;;;8.61;76.94;100095.82;226948;1198;139568;-67
2021/10/16 06:08:50;;;;;;;13.80;7.60;;;;;;;8.62;76.89;100098.75;227577;1198;139830;-68
2021/10/16 06:13:55;;;;;;;11.90;5.30;;;;;;;8.60;76.67;100101.55;227140;1199;139613;-67
2021/10/16 06:19:03;;;;;;;9.40;7.70;;;;;;;8.53;76.70;100109.24;227163;1198;139167;-68
2021/10/16 06:24:13;;;;;;;13.90;6.50;;;;;;;8.51;76.72;100117.96;227673;1198;140196;-69
2021/10/16 06:29:28;;;;;;;10.50;8.40;;;;;;;8.62;76.90;100123.53;227429;1199;140338;-70
2021/10/16 06:34:34;;;;;;;10.50;6.70;;;;;;;8.69;77.12;100128.20;226658;1198;141191;-70
2021/10/16 06:39:42;;;;;;;11.00;6.40;;;;;;;8.77;76.93;100140.56;228474;1198;140337;-70
2021/10/16 06:44:48;;;;;;;16.40;6.30;;;;;;;8.93;76.83;100149.33;228965;1198;141383;-70
2021/10/16 06:49:55;;;;;;;12.30;7.70;;;;;;;9.11;76.77;100159.17;227726;1198;140400;-74
2021/10/16 06:55:04;;;;;;;9.60;6.40;;;;;;;9.13;76.53;100165.30;226970;1198;139297;-69
2021/10/16 07:00:11;;;;;;;8.90;4.80;;;;;;;9.11;76.30;100171.11;229161;1199;140245;-69
2021/10/16 07:05:16;;;;;;;15.80;7.20;;;;;;;9.26;76.33;100168.46;229390;1198;139413;-68
2021/10/16 07:10:21;;;;;;;10.90;6.70;;;;;;;9.33;75.94;100172.55;229326;1199;140598;-72
2021/10/16 07:15:27;;;;;;;8.00;5.50;;;;;;;9.28;75.78;100178.45;227501;1199;142525;-69
2021/10/16 07:20:34;;;;;;;14.20;5.80;;;;;;;9.40;75.73;100181.73;228011;1199;140889;-68
2021/10/16 07:25:59;;;;;;;10.80;6.10;;;;;;;9.51;75.73;100181.54;228275;1198;141825;-69
2021/10/16 07:31:04;;;;;;;15.20;7.30;;;;;;;9.66;75.45;100183.27;227881;1198;141071;-68
2021/10/16 07:36:09;;;;;;;6.00;5.30;;;;;;;9.77;75.19;100190.17;228344;1198;141420;-69
2021/10/16 07:41:14;;;;;;;10.80;5.40;;;;;;;9.76;74.71;100199.07;228160;1197;140331;-68
2021/10/16 07:46:19;;;;;;;11.40;6.50;;;;;;;9.70;74.60;100204.95;227114;1198;142035;-68
2021/10/16 07:51:41;;;;;;;9.70;5.70;;;;;;;9.64;74.63;100209.82;227373;1198;162463;-67
2021/10/16 07:56:48;;;;;;;11.70;4.80;;;;;;;9.63;74.69;100215.20;227788;1198;139147;-68
2021/10/16 08:01:53;;;;;;;6.70;4.60;;;;;;;9.63;74.38;100215.32;227485;1198;139463;-67
2021/10/16 08:06:58;;;;;;;8.70;5.40;;;;;;;9.58;74.21;100224.04;227730;1197;224393;-68
2021/10/16 08:12:14;;;;;;;13.30;5.90;;;;;;;9.52;74.12;100222.77;227145;1198;139533;-69
2021/10/16 08:17:25;;;;;;;16.00;7.00;;;;;;;9.54;73.99;100231.92;226488;1198;139478;-69
2021/10/16 08:22:31;;;;;;;14.70;5.70;;;;;;;9.71;73.97;100238.98;228076;1198;140222;-69
2021/10/16 08:27:40;;;;;;;8.40;4.60;;;;;;;9.78;73.85;100242.89;227590;1198;222040;-69
2021/10/16 08:32:56;;;;;;;12.60;6.80;;;;;;;9.86;73.48;100247.03;227510;1198;140225;-69
2021/10/16 08:37:59;;;;;;;13.20;5.20;;;;;;;9.81;73.14;100250.27;228673;1198;139841;-69
2021/10/16 08:43:11;;;;;;;15.80;6.70;;;;;;;9.75;73.04;100254.21;228809;1199;139261;-68
2021/10/16 08:48:16;;;;;;;6.10;5.10;;;;;;;9.74;73.08;100255.04;227172;1198;139906;-68
2021/10/16 08:53:21;;;;;;;10.90;6.40;;;;;;;9.96;73.03;100248.69;228591;1199;139546;-69
2021/10/16 08:58:38;;;;;;;11.10;6.30;;;;;;;10.24;73.29;100256.11;229158;1198;139834;-68
2021/10/16 09:03:46;;;;;;;6.20;4.10;;;;;;;10.40;72.51;100258.20;229310;1198;141079;-72
2021/10/16 09:09:17;;;;;;;8.60;4.60;;;;;;;10.59;72.36;100256.54;228756;1197;140927;-69
2021/10/16 09:14:32;;;;;;;10.30;5.30;;;;;;;10.79;71.91;100261.30;229505;1198;139583;-68
2021/10/16 09:19:39;;;;;;;7.80;4.90;;;;;;;10.94;71.39;100267.86;228967;1197;140624;-67
2021/10/16 09:25:06;;;;;;;;;;;;;;;11.08;71.17;100268.38;228269;1197;139634;-66
2021/10/16 09:30:10;;;;;;;7.00;4.20;;;;;;;11.03;70.88;100281.50;228136;1198;126318;-68
2021/10/16 09:35:15;;;;;;;7.60;4.20;;;;;;;10.97;70.48;100286.22;227071;1197;139998;-67
2021/10/16 09:40:37;;;;;;;13.00;5.00;;;;;;;10.97;70.27;100281.13;226995;1198;140316;-66
2021/10/16 09:45:46;;;;;;;8.70;4.40;;;;;;;10.90;70.42;100284.50;226776;1198;141263;-66
2021/10/16 09:51:17;;;;;;;3.30;2.70;;;;;;;10.86;70.28;100283.23;227736;1197;139449;-66
2021/10/16 09:56:31;;;;;;;10.30;4.60;;;;;;;10.97;69.88;100280.80;228059;1197;141379;-67
2021/10/16 10:01:39;;;;;;;11.70;4.20;;;;;;;11.07;70.21;100281.08;228339;1198;139599;-67
2021/10/16 10:07:06;;;;;;;;;;;;;;;;;;;;;
2021/10/16 10:12:13;;;;;;;8.90;4.30;;;;;;;11.46;70.04;100293.45;227616;1198;139694;-68
2021/10/16 10:17:44;;;;;;;6.50;2.90;;;;;;;11.63;69.19;100299.36;227986;1198;140941;-68
2021/10/16 10:23:18;;;;;;;9.20;4.00;;;;;;;11.68;69.07;100298.16;227904;1198;162216;-67
2021/10/16 10:28:54;;;;;;;6.30;3.50;;;;;;;11.89;68.49;100293.22;227511;1198;139327;-65
2021/10/16 10:35:08;;;;;;;5.90;2.80;;;;;;;11.92;68.05;100288.58;226838;1197;139480;-67
2021/10/16 10:40:16;;;;;;;9.70;4.90;;;;;;;11.89;67.32;100291.45;228557;1197;140359;-67
2021/10/16 10:45:23;;;;;;;12.50;4.30;;;;;;;12.00;67.37;100286.95;227420;1197;139869;-68
2021/10/16 10:50:52;;;;;;;7.30;4.60;;;;;;;12.50;67.47;100281.48;228404;1198;140255;-68
2021/10/16 10:56:36;;;;;;;6.60;3.50;;;;;;;12.54;66.51;100280.71;229179;1197;140435;-68
2021/10/16 11:01:57;;;;;;;9.20;3.70;;;;;;;12.18;65.88;100276.09;227307;1198;141334;-68
2021/10/16 11:07:05;;;;;;;7.40;3.00;;;;;;;11.74;65.46;100276.09;229323;1198;139760;-70
2021/10/16 11:12:15;;;;;;;11.20;5.60;;;;;;;11.40;65.74;100273.19;229289;1198;139797;-69
2021/10/16 11:17:20;;;;;;;4.90;3.50;;;;;;;11.31;65.86;100271.45;229244;1198;140648;-69
2021/10/16 11:22:45;;;;;;;5.00;2.70;;;;;;;11.72;66.35;100268.48;229543;1198;139358;-68
2021/10/16 11:28:01;;;;;;;9.70;3.30;;;;;;;12.15;66.08;100259.35;228864;1198;140014;-67
2021/10/16 11:33:17;;;;;;;7.80;3.40;;;;;;;12.44;65.42;100260.24;229158;1198;139312;-67
2021/10/16 11:38:50;;;;;;;6.10;3.30;;;;;;;12.31;64.59;100254.88;228560;1198;141277;-67
2021/10/16 11:44:20;;;;;;;5.40;2.20;;;;;;;12.21;64.23;100263.46;227782;1198;140021;-67
2021/10/16 11:49:40;;;;;;;2.10;1.50;;;;;;;12.33;64.44;100259.08;228208;1197;139828;-70
2021/10/16 11:54:46;;;;;;;6.00;3.50;;;;;;;12.30;64.16;100260.03;226252;1198;141225;-68
2021/10/16 12:00:39;;;;;;;8.10;2.70;;;;;;;12.23;63.69;100254.36;227138;1198;139565;-69
2021/10/16 12:05:52;;;;;;;5.70;2.50;;;;;;;12.21;63.27;100255.48;227507;1198;139666;-70
2021/10/16 12:11:24;;;;;;;4.60;1.80;;;;;;;12.46;62.92;100250.55;226860;1198;139707;-67
2021/10/16 12:16:39;;;;;;;6.00;2.10;;;;;;;12.49;62.33;100245.21;227263;1198;139476;-68
2021/10/16 12:22:10;;;;;;;2.30;1.70;;;;;;;12.69;62.11;100242.84;226784;1198;141329;-67
2021/10/16 12:27:15;;;;;;;5.90;2.50;;;;;;;12.46;61.38;100242.63;227907;1199;139722;-67
2021/10/16 12:33:02;;;;;;;3.70;1.90;;;;;;;12.17;61.43;100246.41;227505;1198;139987;-67
2021/10/16 12:38:06;;;;;;;11.30;2.90;;;;;;;11.95;61.32;100244.83;227793;1197;139289;-67
2021/10/16 12:43:23;;;;;;;6.20;2.70;;;;;;;11.96;61.29;100242.71;228688;1198;139970;-68
2021/10/16 12:48:36;;;;;;;13.20;3.10;;;;;;;12.30;61.41;100240.17;226629;1197;140480;-66
2021/10/16 12:53:53;;;;;;;3.40;2.00;;;;;;;12.43;60.55;100232.95;226890;1197;139422;-68
2021/10/16 12:59:02;;;;;;;4.10;2.60;;;;;;;12.34;60.04;100236.06;228313;1197;140074;-67
2021/10/16 13:04:37;;;;;;;8.80;3.90;;;;;;;12.09;59.64;100242.70;229437;1197;139155;-67
2021/10/16 13:09:43;;;;;;;3.60;3.10;;;;;;;11.92;59.80;100249.20;229449;1197;142352;-67
2021/10/16 13:14:49;;;;;;;11.80;2.60;;;;;;;11.74;59.94;100256.65;229388;1197;141357;-67
2021/10/16 13:20:06;;;;;;;6.30;2.40;;;;;;;11.59;59.93;100253.42;228337;1197;141511;-67
2021/10/16 13:25:13;;;;;;;5.60;1.90;;;;;;;11.44;60.11;100252.31;229399;1197;140757;-70
2021/10/16 13:30:21;;;;;;;2.60;2.00;;;;;;;11.39;60.72;100251.00;228755;1197;140098;-67
2021/10/16 13:35:28;;;;;;;6.00;3.70;;;;;;;11.31;60.92;100252.71;228308;1198;143083;-67
2021/10/16 13:40:39;;;;;;;27.20;5.10;;;;;;;11.18;61.07;100253.16;228138;1198;140853;-67
2021/10/16 13:45:45;;;;;;;4.10;2.60;;;;;;;11.09;61.81;100257.13;227192;1190;141347;-67
2021/10/16 13:50:49;;;;;;;9.80;4.00;;;;;;;11.03;62.20;100258.30;227947;1197;140332;-67
2021/10/16 13:55:54;;;;;;;10.10;3.80;;;;;;;11.03;62.20;100261.98;228001;1198;140878;-67
2021/10/16 14:01:00;;;;;;;9.60;5.50;;;;;;;11.08;62.58;100261.33;227316;1198;142314;-66
2021/10/16 14:06:05;;;;;;;12.90;5.60;;;;;;;11.06;62.57;100265.69;227968;1197;142632;-67
2021/10/16 14:11:22;;;;;;;10.40;5.10;;;;;;;10.94;62.59;100265.12;227481;1197;141335;-67
2021/10/16 14:16:38;;;;;;;8.00;4.00;;;;;;;10.86;62.93;100266.64;226668;1197;140693;-66
2021/10/16 14:21:43;;;;;;;10.80;4.90;;;;;;;10.83;63.01;100265.73;226453;1198;139323;-66
2021/10/16 14:26:54;;;;;;;7.70;3.80;;;;;;;10.78;62.99;100266.73;227171;1198;139561;-66
2021/10/16 14:31:58;;;;;;;14.00;4.80;;;;;;;10.73;63.08;100266.67;228150;1198;139196;-67
2021/10/16 14:37:13;;;;;;;;;;;;;;;;;;;;;
2021/10/16 14:42:30;;;;;;;5.40;3.20;;;;;;;10.54;63.10;100276.23;227395;1198;138968;-69
2021/10/16 14:47:39;;;;;;;6.00;3.30;;;;;;;10.45;63.10;100269.52;228177;1198;139777;-69
2021/10/16 14:52:46;;;;;;;3.60;2.30;;;;;;;10.35;62.99;100275.00;227446;1198;139896;-71
2021/10/16 14:57:50;;;;;;;10.00;3.00;;;;;;;10.26;62.94;100271.27;227213;1198;140550;-68
2021/10/16 15:03:02;;;;;;;8.70;2.90;;;;;;;10.18;63.21;100269.51;227678;1198;140587;-67
2021/10/16 15:08:26;;;;;;;15.10;4.50;;;;;;;10.16;63.44;100274.52;226322;1198;139686;-67
2021/10/16 15:13:31;;;;;;;12.80;3.20;;;;;;;10.11;63.68;100275.17;229215;1198;139705;-67
2021/10/16 15:18:35;;;;;;;13.30;4.30;;;;;;;10.10;63.97;100280.02;227744;1198;139520;-68
2021/10/16 15:23:39;;;;;;;12.70;3.60;;;;;;;10.03;63.89;100279.08;229165;1198;141359;-67
2021/10/16 15:28:44;;;;;;;8.50;3.50;;;;;;;9.91;64.08;100277.77;229364;1198;140299;-69
2021/10/16 15:33:49;;;;;;;7.10;2.90;;;;;;;9.85;64.17;100282.14;229045;1198;139074;-69
2021/10/16 15:39:13;;;;;;;7.60;4.50;;;;;;;9.88;64.29;100279.30;229524;1198;139319;-68
2021/10/16 15:44:18;;;;;;;7.40;3.50;;;;;;;9.86;64.68;100283.05;229188;1198;139888;-67
2021/10/16 15:49:23;;;;;;;15.40;5.00;;;;;;;9.84;64.98;100281.73;228102;1198;139659;-68
2021/10/16 15:54:27;;;;;;;12.70;5.60;;;;;;;9.82;65.10;100287.95;228894;1198;140915;-67
2021/10/16 15:59:37;;;;;;;11.30;4.50;;;;;;;9.79;65.22;100289.58;227782;1198;139306;-67
2021/10/16 16:04:42;;;;;;;5.90;3.80;;;;;;;9.68;65.21;100284.58;226824;1199;139515;-65
2021/10/16 16:09:47;;;;;;;11.20;4.10;;;;;;;9.55;65.45;100290.80;228076;1198;139174;-66
2021/10/16 16:14:53;;;;;;;23.10;7.10;;;;;;;9.44;65.58;100289.85;226244;1198;140228;-66
2021/10/16 16:19:58;;;;;;;13.90;4.90;;;;;;;9.35;65.74;100292.55;227087;1199;139456;-66
2021/10/16 16:25:29;;;;;;;24.20;10.20;;;;;;;9.29;66.22;100296.43;227806;1199;139353;-67
2021/10/16 16:30:34;;;;;;;101.80;46.40;;;;;;;9.19;66.37;100305.15;226888;1199;139694;-66
2021/10/16 16:35:42;;;;;;;32.40;16.20;;;;;;;9.15;66.81;100302.70;227484;1198;140075;-66
2021/10/16 16:40:59;;;;;;;17.30;7.80;;;;;;;9.10;66.83;100306.64;227727;1199;140124;-67
2021/10/16 16:46:06;;;;;;;8.50;4.10;;;;;;;9.01;66.86;100309.05;227441;1198;139182;-66
2021/10/16 16:51:20;;;;;;;;;;;;;;;8.92;66.97;100308.33;227533;1198;140879;-67
2021/10/16 16:56:35;;;;;;;12.50;5.30;;;;;;;8.90;67.44;100310.87;227602;1198;126934;-68
2021/10/16 17:01:40;;;;;;;6.70;4.60;;;;;;;8.91;67.35;100315.16;226340;1198;158784;-68
2021/10/16 17:06:45;;;;;;;10.60;4.10;;;;;;;8.88;67.50;100314.36;228499;1198;139487;-68
2021/10/16 17:11:49;;;;;;;13.30;6.00;;;;;;;8.75;67.12;100311.02;228094;1198;139953;-68
2021/10/16 17:16:57;;;;;;;12.60;4.60;;;;;;;8.65;66.96;100313.77;227328;1197;139704;-67
2021/10/16 17:22:04;;;;;;;7.50;3.50;;;;;;;8.50;67.12;100317.27;229278;1198;139851;-67
2021/10/16 17:27:09;;;;;;;14.00;5.40;;;;;;;8.39;67.07;100318.84;229339;1198;141351;-68
2021/10/16 17:32:16;;;;;;;14.10;5.50;;;;;;;8.31;67.35;100319.45;229299;1198;140153;-69
2021/10/16 17:37:21;;;;;;;10.10;5.30;;;;;;;8.19;67.42;100325.08;229184;1198;139720;-68
2021/10/16 17:42:25;;;;;;;8.50;4.40;;;;;;;8.03;67.29;100325.67;228247;1198;139324;-67
2021/10/16 17:47:29;;;;;;;16.30;6.40;;;;;;;7.82;67.61;100328.57;226886;1198;143024;-68
2021/10/16 17:52:35;;;;;;;9.70;4.20;;;;;;;7.64;67.86;100331.19;227341;1200;139864;-67
2021/10/16 17:57:43;;;;;;;12.20;5.00;;;;;;;7.52;67.57;100329.24;227317;1198;140055;-69
2021/10/16 18:02:51;;;;;;;17.60;5.50;;;;;;;7.36;68.20;100328.79;227383;1198;140188;-68
2021/10/16 18:08:13;;;;;;;10.50;4.90;;;;;;;7.17;68.25;100327.78;227022;1198;139144;-70
2021/10/16 18:13:18;;;;;;;11.30;5.70;;;;;;;7.02;68.69;100329.92;228084;1199;141731;-66
2021/10/16 18:18:24;;;;;;;7.60;4.40;;;;;;;6.86;68.56;100327.02;227409;1198;139674;-67
2021/10/16 18:23:28;;;;;;;12.50;6.90;;;;;;;6.74;68.63;100323.61;227009;1198;139627;-67
2021/10/16 18:28:35;;;;;;;8.10;4.80;;;;;;;6.54;68.79;100324.92;227161;1198;139567;-66
2021/10/16 18:33:41;;;;;;;13.00;7.10;;;;;;;6.33;68.91;100328.49;227521;1198;140082;-67
2021/10/16 18:38:46;;;;;;;10.90;5.30;;;;;;;6.20;69.55;100327.97;227966;1198;139385;-66
2021/10/16 18:43:52;;;;;;;13.80;5.50;;;;;;;6.08;70.05;100327.20;226974;1197;139857;-67
2021/10/16 18:48:57;;;;;;;16.10;7.10;;;;;;;6.02;70.05;100326.91;227502;1198;139802;-66
2021/10/16 18:54:02;;;;;;;13.40;5.60;;;;;;;6.01;70.33;100329.01;227467;1197;140086;-67
2021/10/16 18:59:10;;;;;;;13.20;6.10;;;;;;;5.98;70.63;100331.07;228563;1198;141254;-69
2021/10/16 19:04:15;;;;;;;11.20;7.40;;;;;;;5.99;71.07;100328.50;227903;1198;139811;-67
2021/10/16 19:09:20;;;;;;;17.30;8.10;;;;;;;5.97;71.11;100330.84;228889;1197;140098;-67
2021/10/16 19:14:26;;;;;;;20.30;9.60;;;;;;;6.04;71.21;100332.17;228647;1197;139317;-67
2021/10/16 19:19:31;;;;;;;15.90;9.80;;;;;;;6.12;71.31;100328.52;227463;1198;140849;-68
2021/10/16 19:24:36;;;;;;;19.50;9.60;;;;;;;6.14;71.98;100326.25;227994;1198;141053;-70
2021/10/16 19:29:40;;;;;;;18.80;7.80;;;;;;;6.17;72.15;100327.01;228977;1197;141488;-67
2021/10/16 19:34:44;;;;;;;17.40;8.90;;;;;;;6.22;71.92;100329.54;229606;1198;139999;-70
2021/10/16 19:39:50;;;;;;;19.90;9.70;;;;;;;6.21;71.87;100330.17;228723;1197;140065;-68
2021/10/16 19:44:55;;;;;;;16.00;8.40;;;;;;;6.23;72.26;100334.65;229529;1197;139996;-67
2021/10/16 19:50:00;;;;;;;22.70;9.70;;;;;;;6.28;72.50;100335.05;228100;1198;140997;-67
2021/10/16 19:55:06;;;;;;;27.80;13.00;;;;;;;6.35;72.57;100337.48;229341;1197;139499;-67
2021/10/16 20:00:14;;;;;;;19.70;10.90;;;;;;;6.38;72.64;100343.86;227635;1198;139823;-67
2021/10/16 20:05:18;;;;;;;17.10;8.60;;;;;;;6.39;73.01;100342.23;228136;1198;139577;-67
2021/10/16 20:10:23;;;;;;;17.20;10.50;;;;;;;6.44;73.05;100348.15;228256;1198;139206;-66
2021/10/16 20:15:33;;;;;;;26.90;12.20;;;;;;;6.54;73.16;100354.09;227907;1198;140723;-66
2021/10/16 20:20:38;;;;;;;23.90;10.80;;;;;;;6.58;73.04;100350.74;226757;1197;140047;-66
2021/10/16 20:25:43;;;;;;;22.30;11.80;;;;;;;6.60;73.25;100348.06;228131;1198;140330;-67
2021/10/16 20:30:47;;;;;;;30.70;11.90;;;;;;;6.61;73.66;100350.70;227473;1197;141004;-66
2021/10/16 20:35:54;;;;;;;24.60;12.50;;;;;;;6.67;73.41;100347.34;227422;1198;139898;-66
2021/10/16 20:40:58;;;;;;;25.50;14.10;;;;;;;6.70;73.82;100350.18;227567;1197;139633;-66
2021/10/16 20:46:02;;;;;;;20.80;12.10;;;;;;;6.74;73.91;100346.57;227269;1198;139780;-66
2021/10/16 20:51:07;;;;;;;22.70;12.20;;;;;;;6.72;73.38;100346.76;227077;1197;139555;-65
2021/10/16 20:56:13;;;;;;;21.80;12.30;;;;;;;6.77;73.46;100348.33;227788;1198;140448;-66
2021/10/16 21:01:19;;;;;;;37.00;14.90;;;;;;;6.83;73.80;100352.89;228144;1198;160374;-67
2021/10/16 21:06:25;;;;;;;27.40;13.40;;;;;;;6.79;73.69;100349.68;227432;1197;139443;-66
2021/10/16 21:11:31;;;;;;;35.60;14.20;;;;;;;6.75;73.94;100351.79;228001;1197;139877;-67
2021/10/16 21:16:36;;;;;;;38.70;14.40;;;;;;;6.74;73.93;100348.02;227689;1198;141399;-67
2021/10/16 21:22:04;;;;;;;26.70;15.10;;;;;;;6.82;74.38;100346.94;228003;1198;140798;-67
2021/10/16 21:27:10;;;;;;;37.80;15.90;;;;;;;6.86;74.31;100347.73;229504;1197;141383;-67
2021/10/16 21:32:15;;;;;;;27.40;13.70;;;;;;;6.85;74.35;100344.07;229260;1198;139852;-70
2021/10/16 21:37:19;;;;;;;32.10;14.20;;;;;;;6.92;74.17;100338.64;229430;1197;140103;-70
2021/10/16 21:42:25;;;;;;;32.30;13.70;;;;;;;7.01;74.23;100343.92;227135;1198;140089;-67
2021/10/16 21:47:29;;;;;;;30.60;17.70;;;;;;;7.06;74.21;100338.08;226500;1197;140335;-67
2021/10/16 21:52:38;;;;;;;22.50;12.40;;;;;;;7.05;74.62;100340.20;228807;1198;139590;-68
2021/10/16 21:57:58;;;;;;;28.90;14.80;;;;;;;7.03;74.37;100341.75;228170;1197;140455;-66
2021/10/16 22:03:04;;;;;;;27.80;13.40;;;;;;;7.14;74.66;100343.35;227948;1198;139894;-67
2021/10/16 22:08:09;;;;;;;27.40;14.90;;;;;;;7.21;74.51;100338.98;227972;1198;142841;-67
2021/10/16 22:13:14;;;;;;;22.00;11.90;;;;;;;7.22;74.82;100345.58;227041;1184;141510;-67
2021/10/16 22:18:19;;;;;;;29.00;12.30;;;;;;;7.22;74.84;100337.23;227399;1197;140937;-67
2021/10/16 22:23:27;;;;;;;25.10;13.10;;;;;;;7.28;74.71;100343.30;227175;1198;141320;-67
2021/10/16 22:28:34;;;;;;;26.00;12.30;;;;;;;7.32;74.99;100338.86;226685;1197;146524;-67
2021/10/16 22:33:42;;;;;;;31.20;12.90;;;;;;;7.27;74.76;100343.45;226843;1197;141307;-67
2021/10/16 22:39:28;;;;;;;27.60;13.60;;;;;;;7.23;74.74;100341.19;227059;1198;140396;-67
2021/10/16 22:44:31;;;;;;;24.10;13.30;;;;;;;7.28;74.91;100337.21;226982;1198;140812;-67
2021/10/16 22:49:44;;;;;;;25.70;12.00;;;;;;;7.28;75.38;100334.19;227664;1197;139908;-67
2021/10/16 22:54:52;;;;;;;28.00;13.70;;;;;;;7.31;75.34;100334.94;227914;1198;141626;-67
2021/10/16 23:00:35;;;;;;;18.50;11.10;;;;;;;7.34;75.01;100334.73;228079;1198;140196;-66
2021/10/16 23:05:42;;;;;;;20.50;11.20;;;;;;;7.42;75.27;100337.81;227186;1202;143168;-67
2021/10/16 23:10:59;;;;;;;;;;;;;;;7.44;75.24;100335.61;227957;1202;140865;-66
2021/10/16 23:16:14;;;;;;;27.50;13.00;;;;;;;7.35;75.58;100332.33;227802;1201;125710;-67
2021/10/16 23:21:18;;;;;;;23.10;11.30;;;;;;;7.38;75.66;100336.37;228541;1202;140313;-67
2021/10/16 23:26:23;;;;;;;21.20;10.80;;;;;;;7.46;75.28;100324.36;228528;1202;139932;-66
2021/10/16 23:31:28;;;;;;;27.40;12.70;;;;;;;7.47;75.21;100330.12;228698;1202;140703;-66
2021/10/16 23:36:35;;;;;;;28.00;10.80;;;;;;;7.48;75.44;100328.20;228389;1202;139489;-66
2021/10/16 23:41:40;;;;;;;23.60;10.70;;;;;;;7.52;75.63;100331.40;228314;1198;140010;-67